sensor_id;sensor_type;location;lat;lon;timestamp;P1;durP1;ratioP1;P2;durP2;ratioP2
1545;SDS011;766;51.502;9.752;2024-03-08T00:00:48;27.85;;;17.77;;
1545;SDS011;766;51.502;9.752;2024-03-08T00:37:34;31.02;;;17.58;;
1545;SDS011;766;51.502;9.752;2024-03-08T00:40:03;30.40;;;18.42;;
1545;SDS011;766;51.502;9.752;2024-03-08T00:42:33;35.05;;;18.50;;
1545;SDS011;766;51.502;9.752;2024-03-08T00:45:02;34.72;;;18.02;;
1545;SDS011;766;51.502;9.752;2024-03-08T00:47:30;28.85;;;17.83;;
1545;SDS011;766;51.502;9.752;2024-03-08T00:49:59;32.55;;;17.77;;
1545;SDS011;766;51.502;9.752;2024-03-08T00:52:30;31.45;;;18.65;;
1545;SDS011;766;51.502;9.752;2024-03-08T00:54:59;32.28;;;18.27;;
1545;SDS011;766;51.502;9.752;2024-03-08T00:57:28;29.40;;;17.50;;
1545;SDS011;766;51.502;9.752;2024-03-08T00:59:56;33.00;;;19.45;;
1545;SDS011;766;51.502;9.752;2024-03-08T01:02:24;32.28;;;18.52;;
1545;SDS011;766;51.502;9.752;2024-03-08T01:04:53;33.67;;;19.85;;
1545;SDS011;766;51.502;9.752;2024-03-08T01:07:21;30.70;;;18.20;;
1545;SDS011;766;51.502;9.752;2024-03-08T01:09:49;34.00;;;18.52;;
1545;SDS011;766;51.502;9.752;2024-03-08T01:12:19;31.05;;;18.05;;
1545;SDS011;766;51.502;9.752;2024-03-08T01:14:48;32.90;;;19.50;;
1545;SDS011;766;51.502;9.752;2024-03-08T01:17:16;30.10;;;18.90;;
1545;SDS011;766;51.502;9.752;2024-03-08T01:19:44;32.55;;;18.23;;
1545;SDS011;766;51.502;9.752;2024-03-08T01:22:12;31.52;;;18.42;;
1545;SDS011;766;51.502;9.752;2024-03-08T01:24:41;31.95;;;17.58;;
1545;SDS011;766;51.502;9.752;2024-03-08T01:27:09;29.55;;;18.13;;
1545;SDS011;766;51.502;9.752;2024-03-08T01:29:40;32.55;;;18.33;;
1545;SDS011;766;51.502;9.752;2024-03-08T01:32:10;28.23;;;17.88;;
1545;SDS011;766;51.502;9.752;2024-03-08T01:34:38;35.40;;;19.98;;
1545;SDS011;766;51.502;9.752;2024-03-08T01:37:06;31.77;;;18.98;;
1545;SDS011;766;51.502;9.752;2024-03-08T01:39:35;32.10;;;18.38;;
1545;SDS011;766;51.502;9.752;2024-03-08T01:42:04;36.85;;;19.60;;
1545;SDS011;766;51.502;9.752;2024-03-08T01:44:32;35.72;;;20.23;;
1545;SDS011;766;51.502;9.752;2024-03-08T01:47:02;35.33;;;19.25;;
1545;SDS011;766;51.502;9.752;2024-03-08T01:49:30;35.83;;;19.30;;
1545;SDS011;766;51.502;9.752;2024-03-08T01:51:59;30.33;;;19.13;;
1545;SDS011;766;51.502;9.752;2024-03-08T01:54:28;34.75;;;19.73;;
1545;SDS011;766;51.502;9.752;2024-03-08T01:56:57;33.55;;;19.95;;
1545;SDS011;766;51.502;9.752;2024-03-08T01:59:26;38.17;;;20.23;;
1545;SDS011;766;51.502;9.752;2024-03-08T02:01:55;36.92;;;19.52;;
1545;SDS011;766;51.502;9.752;2024-03-08T02:04:28;32.35;;;19.55;;
1545;SDS011;766;51.502;9.752;2024-03-08T02:06:58;30.27;;;19.13;;
1545;SDS011;766;51.502;9.752;2024-03-08T02:09:26;31.80;;;19.00;;
1545;SDS011;766;51.502;9.752;2024-03-08T02:11:55;35.08;;;19.17;;
1545;SDS011;766;51.502;9.752;2024-03-08T02:14:27;34.03;;;19.75;;
1545;SDS011;766;51.502;9.752;2024-03-08T02:16:55;30.70;;;20.23;;
1545;SDS011;766;51.502;9.752;2024-03-08T02:19:28;34.35;;;20.42;;
1545;SDS011;766;51.502;9.752;2024-03-08T02:21:58;30.88;;;18.73;;
1545;SDS011;766;51.502;9.752;2024-03-08T02:24:27;34.10;;;19.73;;
1545;SDS011;766;51.502;9.752;2024-03-08T02:26:55;33.80;;;21.13;;
1545;SDS011;766;51.502;9.752;2024-03-08T02:29:23;32.25;;;20.13;;
1545;SDS011;766;51.502;9.752;2024-03-08T02:31:52;35.25;;;20.42;;
1545;SDS011;766;51.502;9.752;2024-03-08T02:34:22;31.17;;;19.63;;
1545;SDS011;766;51.502;9.752;2024-03-08T02:36:50;34.08;;;21.05;;
1545;SDS011;766;51.502;9.752;2024-03-08T02:39:19;35.85;;;20.38;;
1545;SDS011;766;51.502;9.752;2024-03-08T02:41:48;34.33;;;19.98;;
1545;SDS011;766;51.502;9.752;2024-03-08T02:44:16;32.88;;;20.33;;
1545;SDS011;766;51.502;9.752;2024-03-08T02:46:48;43.50;;;20.88;;
1545;SDS011;766;51.502;9.752;2024-03-08T02:49:17;34.05;;;20.15;;
1545;SDS011;766;51.502;9.752;2024-03-08T02:51:45;32.92;;;19.05;;
1545;SDS011;766;51.502;9.752;2024-03-08T02:54:13;35.47;;;21.35;;
1545;SDS011;766;51.502;9.752;2024-03-08T02:56:45;36.60;;;19.35;;
1545;SDS011;766;51.502;9.752;2024-03-08T02:59:14;38.28;;;19.85;;
1545;SDS011;766;51.502;9.752;2024-03-08T03:01:43;35.45;;;20.65;;
1545;SDS011;766;51.502;9.752;2024-03-08T03:04:14;34.38;;;20.00;;
1545;SDS011;766;51.502;9.752;2024-03-08T03:06:42;35.83;;;20.90;;
1545;SDS011;766;51.502;9.752;2024-03-08T03:09:10;34.78;;;21.08;;
1545;SDS011;766;51.502;9.752;2024-03-08T03:11:39;32.05;;;19.88;;
1545;SDS011;766;51.502;9.752;2024-03-08T03:14:08;34.65;;;20.90;;
1545;SDS011;766;51.502;9.752;2024-03-08T03:16:36;34.40;;;21.65;;
1545;SDS011;766;51.502;9.752;2024-03-08T03:19:07;34.85;;;21.20;;
1545;SDS011;766;51.502;9.752;2024-03-08T03:21:38;37.55;;;21.13;;
1545;SDS011;766;51.502;9.752;2024-03-08T03:24:06;39.20;;;20.55;;
1545;SDS011;766;51.502;9.752;2024-03-08T03:26:37;31.35;;;19.65;;
1545;SDS011;766;51.502;9.752;2024-03-08T03:29:09;32.95;;;19.85;;
1545;SDS011;766;51.502;9.752;2024-03-08T03:31:37;36.28;;;21.20;;
1545;SDS011;766;51.502;9.752;2024-03-08T03:34:06;38.90;;;20.80;;
1545;SDS011;766;51.502;9.752;2024-03-08T03:36:35;38.38;;;20.88;;
1545;SDS011;766;51.502;9.752;2024-03-08T03:39:09;33.35;;;19.38;;
1545;SDS011;766;51.502;9.752;2024-03-08T03:41:42;36.45;;;20.88;;
1545;SDS011;766;51.502;9.752;2024-03-08T03:44:14;38.70;;;21.63;;
1545;SDS011;766;51.502;9.752;2024-03-08T03:46:45;35.83;;;20.73;;
1545;SDS011;766;51.502;9.752;2024-03-08T03:49:13;32.88;;;19.90;;
1545;SDS011;766;51.502;9.752;2024-03-08T03:51:42;33.72;;;19.85;;
1545;SDS011;766;51.502;9.752;2024-03-08T03:54:11;35.70;;;20.10;;
1545;SDS011;766;51.502;9.752;2024-03-08T03:56:40;29.85;;;19.10;;
1545;SDS011;766;51.502;9.752;2024-03-08T03:59:08;33.45;;;20.45;;
1545;SDS011;766;51.502;9.752;2024-03-08T04:01:37;42.78;;;20.60;;
1545;SDS011;766;51.502;9.752;2024-03-08T04:04:09;37.22;;;19.90;;
1545;SDS011;766;51.502;9.752;2024-03-08T04:06:39;36.55;;;21.20;;
1545;SDS011;766;51.502;9.752;2024-03-08T04:09:07;37.42;;;20.80;;
1545;SDS011;766;51.502;9.752;2024-03-08T04:11:36;35.40;;;20.88;;
1545;SDS011;766;51.502;9.752;2024-03-08T04:14:04;35.08;;;19.73;;
1545;SDS011;766;51.502;9.752;2024-03-08T04:16:32;37.50;;;20.98;;
1545;SDS011;766;51.502;9.752;2024-03-08T04:19:03;34.85;;;20.75;;
1545;SDS011;766;51.502;9.752;2024-03-08T04:21:32;37.22;;;21.15;;
1545;SDS011;766;51.502;9.752;2024-03-08T04:24:00;35.10;;;20.08;;
1545;SDS011;766;51.502;9.752;2024-03-08T04:26:28;36.20;;;20.85;;
1545;SDS011;766;51.502;9.752;2024-03-08T04:28:57;32.97;;;20.25;;
1545;SDS011;766;51.502;9.752;2024-03-08T04:31:25;38.05;;;20.13;;
1545;SDS011;766;51.502;9.752;2024-03-08T04:33:53;36.45;;;21.98;;
1545;SDS011;766;51.502;9.752;2024-03-08T04:36:23;40.22;;;21.52;;
1545;SDS011;766;51.502;9.752;2024-03-08T04:38:51;35.80;;;20.63;;
1545;SDS011;766;51.502;9.752;2024-03-08T04:41:19;35.72;;;19.65;;
1545;SDS011;766;51.502;9.752;2024-03-08T04:43:49;41.25;;;21.48;;
1545;SDS011;766;51.502;9.752;2024-03-08T04:46:18;35.88;;;20.88;;
1545;SDS011;766;51.502;9.752;2024-03-08T04:48:46;43.08;;;21.60;;
1545;SDS011;766;51.502;9.752;2024-03-08T04:51:15;36.50;;;20.70;;
1545;SDS011;766;51.502;9.752;2024-03-08T04:53:47;38.38;;;21.40;;
1545;SDS011;766;51.502;9.752;2024-03-08T04:56:15;44.95;;;22.75;;
1545;SDS011;766;51.502;9.752;2024-03-08T04:58:45;43.77;;;21.20;;
1545;SDS011;766;51.502;9.752;2024-03-08T05:01:14;35.90;;;20.13;;
1545;SDS011;766;51.502;9.752;2024-03-08T05:03:42;43.93;;;21.93;;
1545;SDS011;766;51.502;9.752;2024-03-08T05:06:10;42.05;;;22.92;;
1545;SDS011;766;51.502;9.752;2024-03-08T05:08:38;40.67;;;23.30;;
1545;SDS011;766;51.502;9.752;2024-03-08T05:11:08;42.97;;;22.77;;
1545;SDS011;766;51.502;9.752;2024-03-08T05:13:37;49.58;;;23.58;;
1545;SDS011;766;51.502;9.752;2024-03-08T05:16:06;44.57;;;23.87;;
1545;SDS011;766;51.502;9.752;2024-03-08T05:18:35;45.45;;;23.40;;
1545;SDS011;766;51.502;9.752;2024-03-08T05:21:04;44.00;;;25.03;;
1545;SDS011;766;51.502;9.752;2024-03-08T05:23:33;44.80;;;23.00;;
1545;SDS011;766;51.502;9.752;2024-03-08T05:26:02;48.43;;;24.10;;
1545;SDS011;766;51.502;9.752;2024-03-08T05:28:36;43.05;;;23.33;;
1545;SDS011;766;51.502;9.752;2024-03-08T05:31:05;37.83;;;22.80;;
1545;SDS011;766;51.502;9.752;2024-03-08T05:33:33;41.43;;;24.43;;
1545;SDS011;766;51.502;9.752;2024-03-08T05:36:03;45.15;;;22.85;;
1545;SDS011;766;51.502;9.752;2024-03-08T05:38:35;40.93;;;23.93;;
1545;SDS011;766;51.502;9.752;2024-03-08T05:41:04;46.88;;;22.98;;
1545;SDS011;766;51.502;9.752;2024-03-08T05:43:33;45.03;;;24.17;;
1545;SDS011;766;51.502;9.752;2024-03-08T05:46:03;41.53;;;23.40;;
1545;SDS011;766;51.502;9.752;2024-03-08T05:48:32;42.97;;;24.97;;
1545;SDS011;766;51.502;9.752;2024-03-08T05:51:01;52.33;;;26.10;;
1545;SDS011;766;51.502;9.752;2024-03-08T05:53:31;42.47;;;23.73;;
1545;SDS011;766;51.502;9.752;2024-03-08T05:56:02;45.95;;;24.38;;
1545;SDS011;766;51.502;9.752;2024-03-08T05:58:31;44.57;;;24.83;;
1545;SDS011;766;51.502;9.752;2024-03-08T06:01:00;46.78;;;23.42;;
1545;SDS011;766;51.502;9.752;2024-03-08T06:03:30;41.57;;;23.87;;
1545;SDS011;766;51.502;9.752;2024-03-08T06:05:58;42.10;;;23.90;;
1545;SDS011;766;51.502;9.752;2024-03-08T06:08:27;42.13;;;23.23;;
1545;SDS011;766;51.502;9.752;2024-03-08T06:10:57;45.78;;;24.98;;
1545;SDS011;766;51.502;9.752;2024-03-08T06:13:29;43.80;;;23.90;;
1545;SDS011;766;51.502;9.752;2024-03-08T06:15:58;40.50;;;23.33;;
1545;SDS011;766;51.502;9.752;2024-03-08T06:18:30;44.85;;;23.35;;
1545;SDS011;766;51.502;9.752;2024-03-08T06:20:59;44.42;;;25.25;;
1545;SDS011;766;51.502;9.752;2024-03-08T06:23:28;48.25;;;24.08;;
1545;SDS011;766;51.502;9.752;2024-03-08T06:25:57;48.30;;;24.33;;
1545;SDS011;766;51.502;9.752;2024-03-08T06:28:26;46.00;;;24.48;;
1545;SDS011;766;51.502;9.752;2024-03-08T06:30:55;43.78;;;23.85;;
1545;SDS011;766;51.502;9.752;2024-03-08T06:33:23;44.33;;;24.10;;
1545;SDS011;766;51.502;9.752;2024-03-08T06:35:54;41.67;;;23.27;;
1545;SDS011;766;51.502;9.752;2024-03-08T06:38:24;44.50;;;24.55;;
1545;SDS011;766;51.502;9.752;2024-03-08T06:40:53;41.00;;;23.58;;
1545;SDS011;766;51.502;9.752;2024-03-08T06:43:22;42.63;;;24.30;;
1545;SDS011;766;51.502;9.752;2024-03-08T06:45:56;42.42;;;24.00;;
1545;SDS011;766;51.502;9.752;2024-03-08T06:48:29;45.15;;;23.75;;
1545;SDS011;766;51.502;9.752;2024-03-08T06:51:01;47.67;;;24.83;;
1545;SDS011;766;51.502;9.752;2024-03-08T06:53:30;45.60;;;24.48;;
1545;SDS011;766;51.502;9.752;2024-03-08T06:55:58;46.47;;;25.20;;
1545;SDS011;766;51.502;9.752;2024-03-08T06:58:27;44.15;;;23.58;;
1545;SDS011;766;51.502;9.752;2024-03-08T07:00:55;47.30;;;25.10;;
1545;SDS011;766;51.502;9.752;2024-03-08T07:03:27;47.60;;;24.33;;
1545;SDS011;766;51.502;9.752;2024-03-08T07:05:56;40.90;;;22.95;;
1545;SDS011;766;51.502;9.752;2024-03-08T07:08:26;41.42;;;23.60;;
1545;SDS011;766;51.502;9.752;2024-03-08T07:10:54;44.58;;;23.38;;
1545;SDS011;766;51.502;9.752;2024-03-08T07:13:25;40.80;;;23.30;;
1545;SDS011;766;51.502;9.752;2024-03-08T07:15:56;47.72;;;25.02;;
1545;SDS011;766;51.502;9.752;2024-03-08T07:18:27;49.70;;;26.47;;
1545;SDS011;766;51.502;9.752;2024-03-08T07:20:57;39.07;;;23.83;;
1545;SDS011;766;51.502;9.752;2024-03-08T07:23:28;46.08;;;24.60;;
1545;SDS011;766;51.502;9.752;2024-03-08T07:26:30;47.28;;;24.90;;
1545;SDS011;766;51.502;9.752;2024-03-08T07:28:59;41.15;;;24.25;;
1545;SDS011;766;51.502;9.752;2024-03-08T07:31:27;45.30;;;24.58;;
1545;SDS011;766;51.502;9.752;2024-03-08T07:34:04;40.92;;;24.00;;
1545;SDS011;766;51.502;9.752;2024-03-08T07:36:34;41.47;;;24.02;;
1545;SDS011;766;51.502;9.752;2024-03-08T07:39:03;40.22;;;23.40;;
1545;SDS011;766;51.502;9.752;2024-03-08T07:41:38;39.83;;;23.75;;
1545;SDS011;766;51.502;9.752;2024-03-08T07:44:07;40.75;;;23.63;;
1545;SDS011;766;51.502;9.752;2024-03-08T07:46:35;45.55;;;23.70;;
1545;SDS011;766;51.502;9.752;2024-03-08T07:49:04;40.80;;;24.30;;
1545;SDS011;766;51.502;9.752;2024-03-08T07:51:37;41.28;;;25.10;;
1545;SDS011;766;51.502;9.752;2024-03-08T07:54:07;42.70;;;23.08;;
1545;SDS011;766;51.502;9.752;2024-03-08T07:56:36;42.28;;;23.40;;
1545;SDS011;766;51.502;9.752;2024-03-08T07:59:04;42.17;;;24.02;;
1545;SDS011;766;51.502;9.752;2024-03-08T08:01:33;46.33;;;24.60;;
1545;SDS011;766;51.502;9.752;2024-03-08T08:04:01;38.15;;;23.27;;
1545;SDS011;766;51.502;9.752;2024-03-08T08:06:30;39.97;;;23.40;;
1545;SDS011;766;51.502;9.752;2024-03-08T08:08:59;37.90;;;23.33;;
1545;SDS011;766;51.502;9.752;2024-03-08T08:11:29;45.33;;;24.65;;
1545;SDS011;766;51.502;9.752;2024-03-08T08:13:59;40.15;;;24.85;;
1545;SDS011;766;51.502;9.752;2024-03-08T08:16:27;42.67;;;23.42;;
1545;SDS011;766;51.502;9.752;2024-03-08T08:18:55;44.22;;;25.08;;
1545;SDS011;766;51.502;9.752;2024-03-08T08:21:27;41.85;;;24.05;;
1545;SDS011;766;51.502;9.752;2024-03-08T08:23:58;42.53;;;25.13;;
1545;SDS011;766;51.502;9.752;2024-03-08T08:26:26;40.60;;;25.25;;
1545;SDS011;766;51.502;9.752;2024-03-08T08:28:58;44.22;;;25.77;;
1545;SDS011;766;51.502;9.752;2024-03-08T08:31:27;43.97;;;25.13;;
1545;SDS011;766;51.502;9.752;2024-03-08T08:33:57;41.67;;;23.35;;
1545;SDS011;766;51.502;9.752;2024-03-08T08:36:26;41.13;;;23.95;;
1545;SDS011;766;51.502;9.752;2024-03-08T08:38:56;40.67;;;25.27;;
1545;SDS011;766;51.502;9.752;2024-03-08T08:41:24;42.08;;;24.67;;
1545;SDS011;766;51.502;9.752;2024-03-08T08:43:55;43.13;;;23.70;;
1545;SDS011;766;51.502;9.752;2024-03-08T08:46:40;37.95;;;23.30;;
1545;SDS011;766;51.502;9.752;2024-03-08T08:49:09;42.13;;;24.88;;
1545;SDS011;766;51.502;9.752;2024-03-08T08:51:42;41.92;;;23.77;;
1545;SDS011;766;51.502;9.752;2024-03-08T08:54:15;41.92;;;23.63;;
1545;SDS011;766;51.502;9.752;2024-03-08T08:56:44;42.95;;;25.65;;
1545;SDS011;766;51.502;9.752;2024-03-08T08:59:15;42.03;;;23.95;;
1545;SDS011;766;51.502;9.752;2024-03-08T09:01:49;39.60;;;23.08;;
1545;SDS011;766;51.502;9.752;2024-03-08T09:04:20;40.67;;;23.92;;
1545;SDS011;766;51.502;9.752;2024-03-08T09:06:49;39.80;;;23.98;;
1545;SDS011;766;51.502;9.752;2024-03-08T09:09:17;35.97;;;22.80;;
1545;SDS011;766;51.502;9.752;2024-03-08T09:11:46;38.53;;;23.38;;
1545;SDS011;766;51.502;9.752;2024-03-08T09:14:17;38.70;;;23.38;;
1545;SDS011;766;51.502;9.752;2024-03-08T09:16:46;35.90;;;22.60;;
1545;SDS011;766;51.502;9.752;2024-03-08T09:19:14;41.42;;;24.08;;
1545;SDS011;766;51.502;9.752;2024-03-08T09:21:43;39.70;;;24.23;;
1545;SDS011;766;51.502;9.752;2024-03-08T09:24:11;39.60;;;23.83;;
1545;SDS011;766;51.502;9.752;2024-03-08T09:26:40;34.00;;;22.10;;
1545;SDS011;766;51.502;9.752;2024-03-08T09:29:10;44.15;;;23.05;;
1545;SDS011;766;51.502;9.752;2024-03-08T09:31:39;34.03;;;22.13;;
1545;SDS011;766;51.502;9.752;2024-03-08T09:34:07;35.72;;;22.40;;
1545;SDS011;766;51.502;9.752;2024-03-08T09:36:42;41.80;;;23.33;;
1545;SDS011;766;51.502;9.752;2024-03-08T09:39:10;35.92;;;22.40;;
1545;SDS011;766;51.502;9.752;2024-03-08T09:41:43;33.83;;;22.33;;
1545;SDS011;766;51.502;9.752;2024-03-08T09:44:14;37.40;;;23.30;;
1545;SDS011;766;51.502;9.752;2024-03-08T09:46:44;36.25;;;23.35;;
1545;SDS011;766;51.502;9.752;2024-03-08T09:49:14;39.92;;;24.20;;
1545;SDS011;766;51.502;9.752;2024-03-08T09:51:43;36.65;;;21.90;;
1545;SDS011;766;51.502;9.752;2024-03-08T09:54:18;33.40;;;20.77;;
1545;SDS011;766;51.502;9.752;2024-03-08T09:56:52;36.75;;;21.23;;
1545;SDS011;766;51.502;9.752;2024-03-08T09:59:20;31.73;;;21.35;;
1545;SDS011;766;51.502;9.752;2024-03-08T10:02:07;35.30;;;20.90;;
1545;SDS011;766;51.502;9.752;2024-03-08T10:04:41;40.47;;;21.50;;
1545;SDS011;766;51.502;9.752;2024-03-08T10:07:12;35.80;;;21.45;;
1545;SDS011;766;51.502;9.752;2024-03-08T10:09:40;33.72;;;21.02;;
1545;SDS011;766;51.502;9.752;2024-03-08T10:12:14;34.92;;;20.95;;
1545;SDS011;766;51.502;9.752;2024-03-08T10:14:43;37.65;;;23.27;;
1545;SDS011;766;51.502;9.752;2024-03-08T10:17:14;34.65;;;19.95;;
1545;SDS011;766;51.502;9.752;2024-03-08T10:19:49;33.90;;;21.42;;
1545;SDS011;766;51.502;9.752;2024-03-08T10:22:18;34.38;;;21.80;;
1545;SDS011;766;51.502;9.752;2024-03-08T10:24:47;36.25;;;21.95;;
1545;SDS011;766;51.502;9.752;2024-03-08T10:27:16;32.90;;;20.33;;
1545;SDS011;766;51.502;9.752;2024-03-08T10:29:47;34.75;;;20.85;;
1545;SDS011;766;51.502;9.752;2024-03-08T10:32:19;31.92;;;20.00;;
1545;SDS011;766;51.502;9.752;2024-03-08T10:34:47;33.72;;;19.85;;
1545;SDS011;766;51.502;9.752;2024-03-08T10:37:16;27.73;;;19.70;;
1545;SDS011;766;51.502;9.752;2024-03-08T10:39:56;33.28;;;20.88;;
1545;SDS011;766;51.502;9.752;2024-03-08T10:42:41;30.35;;;19.05;;
1545;SDS011;766;51.502;9.752;2024-03-08T10:45:30;29.38;;;19.70;;
1545;SDS011;766;51.502;9.752;2024-03-08T10:48:10;34.42;;;21.38;;
1545;SDS011;766;51.502;9.752;2024-03-08T10:50:48;31.27;;;20.17;;
1545;SDS011;766;51.502;9.752;2024-03-08T10:53:21;31.02;;;20.60;;
1545;SDS011;766;51.502;9.752;2024-03-08T10:55:51;31.08;;;19.52;;
1545;SDS011;766;51.502;9.752;2024-03-08T10:58:21;30.67;;;19.55;;
1545;SDS011;766;51.502;9.752;2024-03-08T11:00:53;33.20;;;18.35;;
1545;SDS011;766;51.502;9.752;2024-03-08T11:06:16;30.70;;;19.33;;
1545;SDS011;766;51.502;9.752;2024-03-08T11:08:49;27.92;;;17.92;;
1545;SDS011;766;51.502;9.752;2024-03-08T11:11:24;26.85;;;17.35;;
1545;SDS011;766;51.502;9.752;2024-03-08T11:14:00;27.17;;;17.20;;
1545;SDS011;766;51.502;9.752;2024-03-08T11:16:39;25.15;;;16.70;;
1545;SDS011;766;51.502;9.752;2024-03-08T11:21:58;24.00;;;15.85;;
1545;SDS011;766;51.502;9.752;2024-03-08T11:27:15;23.83;;;15.75;;
1545;SDS011;766;51.502;9.752;2024-03-08T11:29:45;27.70;;;16.55;;
1545;SDS011;766;51.502;9.752;2024-03-08T11:32:27;28.20;;;16.75;;
1545;SDS011;766;51.502;9.752;2024-03-08T11:34:58;25.17;;;15.77;;
1545;SDS011;766;51.502;9.752;2024-03-08T11:37:33;25.83;;;16.23;;
1545;SDS011;766;51.502;9.752;2024-03-08T11:40:02;24.77;;;16.80;;
1545;SDS011;766;51.502;9.752;2024-03-08T11:42:43;25.55;;;16.50;;
1545;SDS011;766;51.502;9.752;2024-03-08T11:45:14;22.40;;;14.75;;
1545;SDS011;766;51.502;9.752;2024-03-08T11:47:44;23.50;;;14.60;;
1545;SDS011;766;51.502;9.752;2024-03-08T11:50:15;25.60;;;16.40;;
1545;SDS011;766;51.502;9.752;2024-03-08T11:52:46;23.08;;;16.05;;
1545;SDS011;766;51.502;9.752;2024-03-08T11:55:14;29.02;;;16.65;;
1545;SDS011;766;51.502;9.752;2024-03-08T11:57:47;24.20;;;16.33;;
1545;SDS011;766;51.502;9.752;2024-03-08T12:00:17;27.92;;;16.00;;
1545;SDS011;766;51.502;9.752;2024-03-08T12:03:01;31.60;;;17.38;;
1545;SDS011;766;51.502;9.752;2024-03-08T12:05:31;24.17;;;16.60;;
1545;SDS011;766;51.502;9.752;2024-03-08T12:08:01;25.90;;;17.00;;
1545;SDS011;766;51.502;9.752;2024-03-08T12:10:31;31.52;;;17.63;;
1545;SDS011;766;51.502;9.752;2024-03-08T12:13:01;25.13;;;16.38;;
1545;SDS011;766;51.502;9.752;2024-03-08T12:15:31;26.67;;;16.77;;
1545;SDS011;766;51.502;9.752;2024-03-08T12:18:00;26.70;;;16.98;;
1545;SDS011;766;51.502;9.752;2024-03-08T12:20:32;31.60;;;17.88;;
1545;SDS011;766;51.502;9.752;2024-03-08T12:23:01;27.58;;;17.17;;
1545;SDS011;766;51.502;9.752;2024-03-08T12:25:32;31.27;;;18.65;;
1545;SDS011;766;51.502;9.752;2024-03-08T12:28:07;35.35;;;19.00;;
1545;SDS011;766;51.502;9.752;2024-03-08T12:30:45;34.28;;;19.35;;
1545;SDS011;766;51.502;9.752;2024-03-08T12:33:15;29.83;;;17.88;;
1545;SDS011;766;51.502;9.752;2024-03-08T12:35:51;30.23;;;18.70;;
1545;SDS011;766;51.502;9.752;2024-03-08T12:38:27;34.08;;;18.92;;
1545;SDS011;766;51.502;9.752;2024-03-08T12:40:58;32.70;;;18.50;;
1545;SDS011;766;51.502;9.752;2024-03-08T12:43:30;33.00;;;19.23;;
1545;SDS011;766;51.502;9.752;2024-03-08T12:45:58;31.65;;;19.85;;
1545;SDS011;766;51.502;9.752;2024-03-08T12:48:27;29.77;;;17.90;;
1545;SDS011;766;51.502;9.752;2024-03-08T12:50:56;27.25;;;18.40;;
1545;SDS011;766;51.502;9.752;2024-03-08T12:53:24;28.98;;;17.80;;
1545;SDS011;766;51.502;9.752;2024-03-08T12:55:55;23.15;;;16.42;;
1545;SDS011;766;51.502;9.752;2024-03-08T12:58:24;26.17;;;17.75;;
1545;SDS011;766;51.502;9.752;2024-03-08T13:00:53;27.17;;;17.48;;
1545;SDS011;766;51.502;9.752;2024-03-08T13:03:21;28.42;;;16.80;;
1545;SDS011;766;51.502;9.752;2024-03-08T13:05:50;29.35;;;17.25;;
1545;SDS011;766;51.502;9.752;2024-03-08T13:08:20;28.90;;;18.33;;
1545;SDS011;766;51.502;9.752;2024-03-08T13:10:51;27.92;;;17.67;;
1545;SDS011;766;51.502;9.752;2024-03-08T13:13:19;29.08;;;17.90;;
1545;SDS011;766;51.502;9.752;2024-03-08T13:15:47;32.33;;;18.50;;
1545;SDS011;766;51.502;9.752;2024-03-08T13:18:16;28.35;;;18.27;;
1545;SDS011;766;51.502;9.752;2024-03-08T13:20:44;31.15;;;18.80;;
1545;SDS011;766;51.502;9.752;2024-03-08T13:23:16;30.95;;;19.65;;
1545;SDS011;766;51.502;9.752;2024-03-08T13:25:45;30.27;;;19.42;;
1545;SDS011;766;51.502;9.752;2024-03-08T13:28:15;31.38;;;19.75;;
1545;SDS011;766;51.502;9.752;2024-03-08T13:30:51;27.88;;;19.27;;
1545;SDS011;766;51.502;9.752;2024-03-08T13:33:25;29.65;;;19.52;;
1545;SDS011;766;51.502;9.752;2024-03-08T13:35:54;29.25;;;18.70;;
1545;SDS011;766;51.502;9.752;2024-03-08T13:38:30;25.05;;;17.92;;
1545;SDS011;766;51.502;9.752;2024-03-08T13:41:01;31.20;;;19.80;;
1545;SDS011;766;51.502;9.752;2024-03-08T13:43:30;28.63;;;18.58;;
1545;SDS011;766;51.502;9.752;2024-03-08T13:46:01;27.75;;;18.88;;
1545;SDS011;766;51.502;9.752;2024-03-08T13:48:29;28.77;;;19.02;;
1545;SDS011;766;51.502;9.752;2024-03-08T13:50:58;29.33;;;19.48;;
1545;SDS011;766;51.502;9.752;2024-03-08T13:53:27;30.38;;;19.63;;
1545;SDS011;766;51.502;9.752;2024-03-08T13:55:56;31.55;;;20.30;;
1545;SDS011;766;51.502;9.752;2024-03-08T13:58:25;30.30;;;19.13;;
1545;SDS011;766;51.502;9.752;2024-03-08T14:00:54;28.58;;;18.63;;
1545;SDS011;766;51.502;9.752;2024-03-08T14:03:22;30.40;;;19.48;;
1545;SDS011;766;51.502;9.752;2024-03-08T14:05:51;31.17;;;20.25;;
1545;SDS011;766;51.502;9.752;2024-03-08T14:08:22;31.00;;;19.05;;
1545;SDS011;766;51.502;9.752;2024-03-08T14:10:51;31.40;;;18.77;;
1545;SDS011;766;51.502;9.752;2024-03-08T14:13:20;30.63;;;18.80;;
1545;SDS011;766;51.502;9.752;2024-03-08T14:15:50;31.17;;;19.25;;
1545;SDS011;766;51.502;9.752;2024-03-08T14:18:19;27.73;;;18.45;;
1545;SDS011;766;51.502;9.752;2024-03-08T14:20:47;31.40;;;18.70;;
1545;SDS011;766;51.502;9.752;2024-03-08T14:23:16;27.58;;;17.67;;
1545;SDS011;766;51.502;9.752;2024-03-08T14:25:49;30.05;;;18.88;;
1545;SDS011;766;51.502;9.752;2024-03-08T14:28:20;31.35;;;19.00;;
1545;SDS011;766;51.502;9.752;2024-03-08T14:30:50;27.92;;;18.02;;
1545;SDS011;766;51.502;9.752;2024-03-08T14:33:19;31.73;;;19.80;;
1545;SDS011;766;51.502;9.752;2024-03-08T14:35:47;28.35;;;18.00;;
1545;SDS011;766;51.502;9.752;2024-03-08T14:38:15;29.00;;;18.38;;
1545;SDS011;766;51.502;9.752;2024-03-08T14:40:44;27.30;;;18.08;;
1545;SDS011;766;51.502;9.752;2024-03-08T14:43:13;31.10;;;18.10;;
1545;SDS011;766;51.502;9.752;2024-03-08T14:45:43;29.27;;;18.42;;
1545;SDS011;766;51.502;9.752;2024-03-08T14:48:15;29.88;;;17.75;;
1545;SDS011;766;51.502;9.752;2024-03-08T14:50:43;27.75;;;17.60;;
1545;SDS011;766;51.502;9.752;2024-03-08T14:53:14;29.77;;;17.80;;
1545;SDS011;766;51.502;9.752;2024-03-08T14:55:43;28.08;;;18.45;;
1545;SDS011;766;51.502;9.752;2024-03-08T14:58:13;30.90;;;19.33;;
1545;SDS011;766;51.502;9.752;2024-03-08T15:00:42;29.60;;;17.23;;
1545;SDS011;766;51.502;9.752;2024-03-08T15:03:10;29.63;;;18.33;;
1545;SDS011;766;51.502;9.752;2024-03-08T15:05:41;27.40;;;19.23;;
1545;SDS011;766;51.502;9.752;2024-03-08T15:08:14;26.85;;;17.98;;
1545;SDS011;766;51.502;9.752;2024-03-08T15:10:46;27.80;;;17.67;;
1545;SDS011;766;51.502;9.752;2024-03-08T15:13:20;27.13;;;18.08;;
1545;SDS011;766;51.502;9.752;2024-03-08T15:15:50;30.63;;;17.85;;
1545;SDS011;766;51.502;9.752;2024-03-08T15:18:22;28.50;;;18.75;;
1545;SDS011;766;51.502;9.752;2024-03-08T15:20:58;28.70;;;17.67;;
1545;SDS011;766;51.502;9.752;2024-03-08T15:23:26;29.70;;;19.15;;
1545;SDS011;766;51.502;9.752;2024-03-08T15:25:56;29.67;;;18.95;;
1545;SDS011;766;51.502;9.752;2024-03-08T15:28:25;28.60;;;18.70;;
1545;SDS011;766;51.502;9.752;2024-03-08T15:31:02;31.73;;;19.33;;
1545;SDS011;766;51.502;9.752;2024-03-08T15:33:34;30.00;;;18.35;;
1545;SDS011;766;51.502;9.752;2024-03-08T15:36:10;32.08;;;18.30;;
1545;SDS011;766;51.502;9.752;2024-03-08T15:38:40;34.72;;;20.17;;
1545;SDS011;766;51.502;9.752;2024-03-08T15:41:09;28.80;;;18.63;;
1545;SDS011;766;51.502;9.752;2024-03-08T15:43:39;29.52;;;18.30;;
1545;SDS011;766;51.502;9.752;2024-03-08T15:46:08;30.02;;;19.13;;
1545;SDS011;766;51.502;9.752;2024-03-08T15:48:37;31.55;;;18.65;;
1545;SDS011;766;51.502;9.752;2024-03-08T15:51:10;31.10;;;19.42;;
1545;SDS011;766;51.502;9.752;2024-03-08T15:53:39;29.52;;;19.25;;
1545;SDS011;766;51.502;9.752;2024-03-08T15:56:08;31.35;;;18.50;;
1545;SDS011;766;51.502;9.752;2024-03-08T15:58:36;30.48;;;19.20;;
1545;SDS011;766;51.502;9.752;2024-03-08T16:01:05;29.52;;;18.70;;